createdAt,value
2022-09-12T00:00:42.390Z,101292.41
2022-09-12T00:03:08.740Z,101302.56
2022-09-12T00:05:41.846Z,101303.38
2022-09-12T00:08:08.716Z,101305.63
2022-09-12T00:10:39.751Z,101307.47
2022-09-12T00:13:07.050Z,101296.81
2022-09-12T00:15:38.822Z,101289.81
2022-09-12T00:18:05.364Z,101282.38
2022-09-12T00:20:31.866Z,101282.84
2022-09-12T00:22:58.250Z,101290.72
2022-09-12T00:25:24.600Z,101284.22
2022-09-12T00:27:50.998Z,101285.78
2022-09-12T00:30:17.545Z,101285.00
2022-09-12T00:32:44.558Z,101277.69
2022-09-12T00:35:11.442Z,101278.16
2022-09-12T00:37:38.035Z,101287.72
2022-09-12T00:40:04.723Z,101284.09
2022-09-12T00:42:31.123Z,101277.88
2022-09-12T00:44:57.430Z,101281.56
2022-09-12T00:47:28.213Z,101276.00
2022-09-12T00:49:56.393Z,101276.22
2022-09-12T00:52:27.768Z,101275.06
2022-09-12T00:55:02.557Z,101276.63
2022-09-12T00:57:38.194Z,101262.31
2022-09-12T01:00:16.748Z,101260.59
2022-09-12T01:02:45.360Z,101259.22
2022-09-12T01:05:13.441Z,101256.94
2022-09-12T01:07:40.719Z,101255.84
2022-09-12T01:10:09.626Z,101258.94
2022-09-12T01:12:39.650Z,101261.22
2022-09-12T01:15:06.623Z,101259.41
2022-09-12T01:17:59.062Z,101265.81
2022-09-12T01:20:53.469Z,101267.81
2022-09-12T01:23:31.066Z,101264.91
2022-09-12T01:26:27.778Z,101260.88
2022-09-12T01:29:09.202Z,101264.81
2022-09-12T01:31:49.985Z,101256.25
2022-09-12T01:34:28.053Z,101252.97
2022-09-12T01:37:16.988Z,101248.88
2022-09-12T01:39:57.658Z,101244.31
2022-09-12T01:42:40.291Z,101246.31
2022-09-12T01:45:18.664Z,101247.78
2022-09-12T01:47:51.086Z,101245.31
2022-09-12T01:50:40.353Z,101244.22
2022-09-12T01:53:12.763Z,101245.50
2022-09-12T01:56:00.013Z,101247.22
2022-09-12T01:58:38.120Z,101240.41
2022-09-12T02:01:16.365Z,101239.47
2022-09-12T02:04:17.879Z,101234.19
2022-09-12T02:06:54.821Z,101229.84
2022-09-12T02:09:29.531Z,101226.28
2022-09-12T02:11:59.010Z,101226.03
2022-09-12T02:14:29.266Z,101218.44
2022-09-12T02:17:00.327Z,101221.91
2022-09-12T02:19:35.868Z,101224.13
2022-09-12T02:22:04.827Z,101216.53
2022-09-12T02:24:40.313Z,101215.53
2022-09-12T02:27:21.360Z,101222.03
2022-09-12T02:29:48.839Z,101218.91
2022-09-12T02:32:38.458Z,101219.94
2022-09-12T02:35:08.357Z,101219.72
2022-09-12T02:38:00.996Z,101222.47
2022-09-12T02:40:28.286Z,101219.09
2022-09-12T02:42:55.112Z,101209.81
2022-09-12T02:45:23.281Z,101214.38
2022-09-12T02:48:13.505Z,101209.38
2022-09-12T02:50:41.703Z,101209.91
2022-09-12T02:53:09.307Z,101205.06
2022-09-12T02:55:37.063Z,101199.06
2022-09-12T02:58:06.418Z,101208.88
2022-09-12T03:00:56.885Z,101200.53
2022-09-12T03:03:48.197Z,101201.34
2022-09-12T03:06:35.039Z,101201.50
2022-09-12T03:09:10.228Z,101204.88
2022-09-12T03:12:03.284Z,101195.69
2022-09-12T03:15:01.651Z,101196.59
2022-09-12T03:17:42.003Z,101192.25
2022-09-12T03:20:17.044Z,101190.94
2022-09-12T03:22:54.711Z,101190.31
2022-09-12T03:25:32.642Z,101189.50
2022-09-12T03:28:10.014Z,101192.31
2022-09-12T03:30:41.635Z,101195.97
2022-09-12T03:33:12.152Z,101196.78
2022-09-12T03:35:39.076Z,101191.88
2022-09-12T03:38:07.978Z,101193.34
2022-09-12T03:40:35.197Z,101197.16
2022-09-12T03:43:01.842Z,101200.69
2022-09-12T03:45:28.292Z,101194.72
2022-09-12T03:47:54.720Z,101199.41
2022-09-12T03:50:21.199Z,101191.97
2022-09-12T03:52:47.593Z,101188.06
2022-09-12T03:55:14.232Z,101193.59
2022-09-12T03:57:40.626Z,101183.66
2022-09-12T04:00:08.714Z,101191.50
2022-09-12T04:02:35.562Z,101191.03
2022-09-12T04:05:02.038Z,101192.41
2022-09-12T04:07:28.931Z,101189.03
2022-09-12T04:09:56.187Z,101183.75
2022-09-12T04:12:23.051Z,101190.69
2022-09-12T04:14:49.591Z,101177.31
2022-09-12T04:17:16.098Z,101181.41
2022-09-12T04:19:42.458Z,101182.38
2022-09-12T04:22:08.870Z,101175.84
2022-09-12T04:24:35.249Z,101167.09
2022-09-12T04:27:05.968Z,101172.84
2022-09-12T04:29:35.628Z,101177.09
2022-09-12T04:32:03.112Z,101180.03
2022-09-12T04:34:32.003Z,101178.97
2022-09-12T04:36:58.636Z,101173.69
2022-09-12T04:39:25.241Z,101177.22
2022-09-12T04:41:51.935Z,101179.47
2022-09-12T04:44:18.333Z,101170.53
2022-09-12T04:46:46.595Z,101178.31
2022-09-12T04:49:16.138Z,101170.53
2022-09-12T04:51:43.465Z,101169.63
2022-09-12T04:54:16.014Z,101162.97
2022-09-12T04:56:44.945Z,101157.06
2022-09-12T04:59:13.017Z,101159.06
2022-09-12T05:01:39.731Z,101160.78
2022-09-12T05:04:06.224Z,101160.25
2022-09-12T05:06:35.367Z,101156.63
2022-09-12T05:09:03.882Z,101156.72
2022-09-12T05:12:02.069Z,101154.63
2022-09-12T05:14:19.428Z,101157.22
2022-09-12T05:16:49.220Z,101152.06
2022-09-12T05:19:16.367Z,101156.16
2022-09-12T05:21:42.726Z,101152.28
2022-09-12T05:24:10.815Z,101149.81
2022-09-12T05:26:37.198Z,101146.81
2022-09-12T05:29:04.524Z,101145.63
2022-09-12T05:31:30.918Z,101150.78
2022-09-12T05:33:57.653Z,101151.88
2022-09-12T05:36:27.020Z,101141.72
2022-09-12T05:38:53.924Z,101149.22
2022-09-12T05:41:25.095Z,101146.19
2022-09-12T05:43:56.868Z,101144.50
2022-09-12T05:46:26.376Z,101145.75
2022-09-12T05:48:56.494Z,101139.34
2022-09-12T05:51:28.521Z,101141.44
2022-09-12T05:53:59.958Z,101150.88
2022-09-12T05:56:29.028Z,101163.09
2022-09-12T05:58:58.844Z,101162.16
2022-09-12T06:01:27.296Z,101156.31
2022-09-12T06:03:56.091Z,101158.59
2022-09-12T06:06:25.110Z,101172.91
2022-09-12T06:08:53.429Z,101171.75
2022-09-12T06:11:31.694Z,101172.81
2022-09-12T06:13:59.067Z,101174.25
2022-09-12T06:16:28.119Z,101172.69
2022-09-12T06:18:56.736Z,101175.78
2022-09-12T06:21:25.300Z,101172.78
2022-09-12T06:23:53.147Z,101177.31
2022-09-12T06:26:23.147Z,101173.28
2022-09-12T06:28:50.383Z,101173.81
2022-09-12T06:31:19.518Z,101170.78
2022-09-12T06:33:49.166Z,101169.25
2022-09-12T06:36:26.678Z,101160.31
2022-09-12T06:39:04.998Z,101165.88
2022-09-12T06:41:32.178Z,101163.47
2022-09-12T06:43:59.637Z,101160.81
2022-09-12T06:46:26.922Z,101166.56
2022-09-12T06:48:56.212Z,101165.56
2022-09-12T06:51:23.066Z,101152.28
2022-09-12T06:53:49.684Z,101156.97
2022-09-12T06:56:19.990Z,101157.78
2022-09-12T06:58:48.019Z,101163.69
2022-09-12T07:01:33.709Z,101165.28
2022-09-12T07:04:02.934Z,101164.47
2022-09-12T07:06:34.876Z,101168.69
2022-09-12T07:09:04.078Z,101176.44
2022-09-12T07:11:33.460Z,101170.50
2022-09-12T07:14:02.151Z,101168.03
2022-09-12T07:16:30.269Z,101172.09
2022-09-12T07:19:01.956Z,101166.53
2022-09-12T07:21:29.271Z,101166.31
2022-09-12T07:23:57.727Z,101175.94
2022-09-12T07:26:27.422Z,101171.59
2022-09-12T07:29:00.704Z,101182.22
2022-09-12T07:31:39.506Z,101176.72
2022-09-12T07:34:06.788Z,101175.06
2022-09-12T07:36:33.711Z,101178.16
2022-09-12T07:39:00.563Z,101172.75
2022-09-12T07:41:28.966Z,101174.44
2022-09-12T07:43:57.514Z,101167.63
2022-09-12T07:46:25.943Z,101165.63
2022-09-12T07:48:53.810Z,101160.00
2022-09-12T07:51:21.254Z,101160.09
2022-09-12T07:53:49.102Z,101162.13
2022-09-12T07:56:16.457Z,101164.22
2022-09-12T07:58:43.938Z,101159.19
2022-09-12T08:01:14.924Z,101156.72
2022-09-12T08:03:43.275Z,101171.69
2022-09-12T08:06:20.995Z,101173.88
2022-09-12T08:08:48.740Z,101169.75
2022-09-12T08:11:17.426Z,101171.53
2022-09-12T08:13:44.695Z,101165.44
2022-09-12T08:16:14.724Z,101177.78
2022-09-12T08:18:41.791Z,101171.94
2022-09-12T08:21:14.181Z,101176.81
2022-09-12T08:23:41.232Z,101176.34
2022-09-12T08:26:08.233Z,101182.78
2022-09-12T08:28:36.477Z,101181.47
2022-09-12T08:31:12.886Z,101188.50
2022-09-12T08:33:39.886Z,101182.00
2022-09-12T08:36:11.731Z,101176.38
2022-09-12T08:38:40.678Z,101172.03
2022-09-12T08:41:39.435Z,101170.94
2022-09-12T08:44:24.588Z,101171.69
2022-09-12T08:47:09.876Z,101163.41
2022-09-12T08:49:48.421Z,101168.09
2022-09-12T08:52:25.448Z,101164.16
2022-09-12T08:54:52.058Z,101162.66
2022-09-12T08:57:18.477Z,101162.56
2022-09-12T08:59:46.245Z,101168.63
2022-09-12T09:02:45.819Z,101161.47
2022-09-12T09:05:49.448Z,101166.94
2022-09-12T09:08:40.096Z,101157.28
2022-09-12T09:11:06.423Z,101155.72
2022-09-12T09:14:13.000Z,101156.81
2022-09-12T09:16:44.194Z,101164.47
2022-09-12T09:19:20.021Z,101157.38
2022-09-12T09:21:59.278Z,101160.84
2022-09-12T09:24:34.087Z,101162.50
2022-09-12T09:27:23.534Z,101154.28
2022-09-12T09:29:55.934Z,101160.06
2022-09-12T09:32:34.347Z,101155.72
2022-09-12T09:35:03.004Z,101153.09
2022-09-12T09:37:58.453Z,101147.41
2022-09-12T09:40:46.953Z,101141.91
2022-09-12T09:43:23.032Z,101130.50
2022-09-12T09:45:51.835Z,101134.66
2022-09-12T09:48:32.495Z,101134.25
2022-09-12T09:51:02.052Z,101133.19
2022-09-12T09:53:50.234Z,101129.53
2022-09-12T09:56:49.326Z,101120.56
2022-09-12T09:59:19.911Z,101124.69
2022-09-12T10:01:48.068Z,101126.25
2022-09-12T10:04:24.396Z,101123.31
2022-09-12T10:06:56.226Z,101116.06
2022-09-12T10:09:34.452Z,101124.13
2022-09-12T10:12:20.171Z,101124.00
2022-09-12T10:15:01.146Z,101113.00
2022-09-12T10:17:46.270Z,101112.31
2022-09-12T10:20:42.890Z,101107.81
2022-09-12T10:23:29.394Z,101108.03
2022-09-12T10:26:00.753Z,101108.44
2022-09-12T10:28:39.930Z,101113.81
2022-09-12T10:31:16.727Z,101108.66
2022-09-12T10:33:52.488Z,101102.28
2022-09-12T10:36:20.818Z,101094.22
2022-09-12T10:38:57.422Z,101085.13
2022-09-12T10:41:24.820Z,101090.69
2022-09-12T10:43:51.292Z,101082.38
2022-09-12T10:46:17.609Z,101078.75
2022-09-12T10:48:47.694Z,101080.09
2022-09-12T10:51:29.622Z,101069.88
2022-09-12T10:53:59.287Z,101070.25
2022-09-12T10:56:32.580Z,101063.94
2022-09-12T10:59:01.958Z,101070.34
2022-09-12T11:02:00.563Z,101060.56
2022-09-12T11:04:42.037Z,101065.88
2022-09-12T11:07:37.929Z,101060.19
2022-09-12T11:10:36.748Z,101053.38
2022-09-12T11:13:34.998Z,101049.63
2022-09-12T11:16:13.536Z,101044.13
2022-09-12T11:19:12.333Z,101041.56
2022-09-12T11:22:11.862Z,101038.50
2022-09-12T11:24:58.658Z,101036.19
2022-09-12T11:28:00.207Z,101032.09
2022-09-12T11:30:32.207Z,101029.88
2022-09-12T11:33:42.708Z,101026.06
2022-09-12T11:36:37.444Z,101020.34
2022-09-12T11:39:12.825Z,101031.53
2022-09-12T11:41:43.537Z,101027.78
2022-09-12T11:44:22.327Z,101020.97
2022-09-12T11:46:51.931Z,101026.50
2022-09-12T11:49:31.374Z,101022.50
2022-09-12T11:52:10.686Z,101019.28
2022-09-12T11:55:12.500Z,101014.78
2022-09-12T11:58:00.729Z,101010.00
2022-09-12T12:00:35.242Z,101014.03
2022-09-12T12:03:13.627Z,101010.72
2022-09-12T12:05:49.552Z,101004.59
2022-09-12T12:08:16.148Z,101003.28
2022-09-12T12:10:49.837Z,101006.84
2022-09-12T12:13:27.799Z,100994.66
2022-09-12T12:16:05.377Z,101000.19
2022-09-12T12:18:34.156Z,100995.34
2022-09-12T12:21:29.681Z,100990.94
2022-09-12T12:24:08.156Z,100996.56
2022-09-12T12:26:44.554Z,100990.72
2022-09-12T12:29:11.975Z,100981.66
2022-09-12T12:32:16.179Z,100981.72
2022-09-12T12:34:47.272Z,100983.06
2022-09-12T12:37:19.522Z,100974.97
2022-09-12T12:39:47.811Z,100970.00
2022-09-12T12:42:32.546Z,100974.53
2022-09-12T12:45:04.250Z,100965.44
2022-09-12T12:47:41.836Z,100961.38
2022-09-12T12:50:23.786Z,100951.81
2022-09-12T12:53:06.854Z,100949.25
2022-09-12T12:55:37.588Z,100936.47
2022-09-12T12:58:05.749Z,100939.19
2022-09-12T13:00:37.070Z,100931.56
2022-09-12T13:03:06.612Z,100937.88
2022-09-12T13:05:49.194Z,100935.91
2022-09-12T13:08:18.812Z,100926.13
2022-09-12T13:10:58.444Z,100925.50
2022-09-12T13:13:32.052Z,100940.50
2022-09-12T13:15:58.702Z,100931.44
2022-09-12T13:18:39.342Z,100933.09
2022-09-12T13:21:19.070Z,100917.78
2022-09-12T13:24:00.725Z,100918.00
2022-09-12T13:26:27.092Z,100910.22
2022-09-12T13:29:29.271Z,100915.78
2022-09-12T13:31:59.297Z,100917.81
2022-09-12T13:34:33.661Z,100908.25
2022-09-12T13:37:27.015Z,100916.13
2022-09-12T13:40:32.088Z,100911.22
2022-09-12T13:43:13.903Z,100901.28
2022-09-12T13:45:41.507Z,100894.09
2022-09-12T13:48:16.676Z,100887.72
2022-09-12T13:50:53.572Z,100887.25
2022-09-12T13:53:23.765Z,100896.66
2022-09-12T13:55:53.845Z,100891.47
2022-09-12T13:58:29.259Z,100886.66
2022-09-12T14:01:14.514Z,100885.78
2022-09-12T14:03:59.366Z,100887.44
2022-09-12T14:06:27.777Z,100887.44
2022-09-12T14:09:00.785Z,100879.00
2022-09-12T14:11:29.514Z,100876.91
2022-09-12T14:13:56.984Z,100878.53
2022-09-12T14:16:28.953Z,100865.06
2022-09-12T14:18:56.084Z,100861.66
2022-09-12T14:21:28.547Z,100860.81
2022-09-12T14:23:55.159Z,100863.50
2022-09-12T14:26:22.531Z,100865.94
2022-09-12T14:28:49.484Z,100856.22
2022-09-12T14:31:30.414Z,100853.56
2022-09-12T14:34:09.782Z,100846.69
2022-09-12T14:36:42.123Z,100837.28
2022-09-12T14:39:29.965Z,100833.28
2022-09-12T14:42:16.249Z,100829.38
2022-09-12T14:44:56.930Z,100823.28
2022-09-12T14:47:33.320Z,100825.81
2022-09-12T14:49:59.805Z,100825.47
2022-09-12T14:52:30.017Z,100831.78
2022-09-12T14:55:17.435Z,100825.13
2022-09-12T14:57:45.171Z,100818.97
2022-09-12T15:00:20.235Z,100822.59
2022-09-12T15:02:48.458Z,100817.06
2022-09-12T15:05:21.013Z,100813.56
2022-09-12T15:07:50.240Z,100806.78
2022-09-12T15:10:24.049Z,100811.28
2022-09-12T15:12:51.327Z,100813.84
2022-09-12T15:15:21.111Z,100812.59
2022-09-12T15:17:47.493Z,100807.94
2022-09-12T15:20:14.234Z,100802.47
2022-09-12T15:22:41.908Z,100795.78
2022-09-12T15:25:10.722Z,100803.59
2022-09-12T15:27:40.741Z,100791.25
2022-09-12T15:30:08.530Z,100792.38
2022-09-12T15:32:34.977Z,100792.91
2022-09-12T15:35:01.463Z,100785.94
2022-09-12T15:37:28.267Z,100796.47
2022-09-12T15:39:54.697Z,100790.28
2022-09-12T15:42:28.158Z,100786.25
2022-09-12T15:44:57.486Z,100784.41
2022-09-12T15:47:26.158Z,100775.78
2022-09-12T15:49:52.544Z,100762.59
2022-09-12T15:52:19.171Z,100768.28
2022-09-12T15:54:45.562Z,100776.75
2022-09-12T15:57:11.961Z,100766.22
2022-09-12T15:59:38.298Z,100782.19
2022-09-12T16:02:04.778Z,100773.31
2022-09-12T16:04:31.549Z,100765.00
2022-09-12T16:06:58.025Z,100758.78
2022-09-12T16:09:24.699Z,100756.94
2022-09-12T16:11:51.717Z,100750.72
2022-09-12T16:14:19.215Z,100753.78
2022-09-12T16:16:52.151Z,100755.41
2022-09-12T16:19:18.466Z,100751.63
2022-09-12T16:21:44.921Z,100752.44
2022-09-12T16:24:11.284Z,100743.88
2022-09-12T16:26:37.941Z,100739.84
2022-09-12T16:29:05.573Z,100729.06
2022-09-12T16:31:31.979Z,100727.47
2022-09-12T16:33:58.546Z,100723.72
2022-09-12T16:36:24.981Z,100730.44
2022-09-12T16:38:53.762Z,100732.06
2022-09-12T16:41:22.517Z,100738.00
2022-09-12T16:43:49.206Z,100722.16
2022-09-12T16:46:19.080Z,100725.66
2022-09-12T16:48:52.139Z,100734.28
2022-09-12T16:51:21.993Z,100730.75
2022-09-12T16:53:48.724Z,100719.75
2022-09-12T16:56:15.647Z,100719.25
2022-09-12T16:58:43.190Z,100718.13
2022-09-12T17:01:15.557Z,100706.28
2022-09-12T17:03:42.184Z,100709.28
2022-09-12T17:06:27.364Z,100711.09
2022-09-12T17:08:55.988Z,100706.28
2022-09-12T17:11:26.829Z,100699.81
2022-09-12T17:14:11.034Z,100702.78
2022-09-12T17:16:39.859Z,100705.47
2022-09-12T17:19:07.572Z,100696.03
2022-09-12T17:21:35.228Z,100696.84
2022-09-12T17:24:01.853Z,100697.25
2022-09-12T17:26:28.210Z,100703.00
2022-09-12T17:28:54.654Z,100707.09
2022-09-12T17:31:21.026Z,100706.38
2022-09-12T17:33:47.828Z,100698.94
2022-09-12T17:36:16.528Z,100703.06
2022-09-12T17:38:44.824Z,100694.06
2022-09-12T17:41:18.901Z,100694.72
2022-09-12T17:43:51.578Z,100695.25
2022-09-12T17:46:19.353Z,100687.94
2022-09-12T17:48:51.404Z,100696.44
2022-09-12T17:51:17.776Z,100698.63
2022-09-12T17:53:44.990Z,100703.50
2022-09-12T17:56:12.040Z,100695.25
2022-09-12T17:58:38.730Z,100696.09
2022-09-12T18:01:28.807Z,100693.53
2022-09-12T18:04:03.561Z,100696.19
2022-09-12T18:06:30.716Z,100685.84
2022-09-12T18:09:06.363Z,100694.28
2022-09-12T18:11:33.469Z,100697.94
2022-09-12T18:14:00.799Z,100688.47
2022-09-12T18:16:28.492Z,100694.38
2022-09-12T18:18:55.585Z,100695.91
2022-09-12T18:21:22.041Z,100691.63
2022-09-12T18:23:48.444Z,100696.97
2022-09-12T18:26:15.169Z,100693.91
2022-09-12T18:28:43.849Z,100691.59
2022-09-12T18:31:13.723Z,100689.34
2022-09-12T18:33:40.957Z,100692.47
2022-09-12T18:36:09.739Z,100684.19
2022-09-12T18:38:36.737Z,100685.72
2022-09-12T18:41:05.322Z,100678.69
2022-09-12T18:43:31.885Z,100671.38
2022-09-12T18:46:04.024Z,100669.06
2022-09-12T18:48:32.365Z,100672.88
2022-09-12T18:51:03.510Z,100669.66
2022-09-12T18:53:29.858Z,100669.56
2022-09-12T18:56:10.220Z,100669.81
2022-09-12T18:58:37.897Z,100669.13
2022-09-12T19:01:22.071Z,100670.31
2022-09-12T19:03:49.360Z,100672.84
2022-09-12T19:06:19.269Z,100660.91
2022-09-12T19:08:45.713Z,100656.41
2022-09-12T19:11:13.130Z,100645.31
2022-09-12T19:13:42.072Z,100649.13
2022-09-12T19:16:11.520Z,100649.25
2022-09-12T19:18:39.386Z,100645.56
2022-09-12T19:21:08.358Z,100650.97
2022-09-12T19:23:35.943Z,100652.59
2022-09-12T19:26:07.633Z,100661.06
2022-09-12T19:28:34.556Z,100665.47
2022-09-12T19:31:05.494Z,100666.50
2022-09-12T19:33:31.867Z,100657.38
2022-09-12T19:36:04.264Z,100656.56
2022-09-12T19:38:30.978Z,100650.75
2022-09-12T19:41:12.286Z,100648.09
2022-09-12T19:43:41.141Z,100651.00
2022-09-12T19:46:07.865Z,100656.34
2022-09-12T19:48:35.057Z,100659.69
2022-09-12T19:51:02.754Z,100660.03
2022-09-12T19:53:30.637Z,100664.78
2022-09-12T19:56:01.393Z,100656.56
2022-09-12T19:58:28.465Z,100646.69
2022-09-12T20:00:55.961Z,100665.44
2022-09-12T20:03:23.532Z,100663.69
2022-09-12T20:05:49.903Z,100659.91
2022-09-12T20:08:16.448Z,100668.09
2022-09-12T20:10:42.865Z,100665.56
2022-09-12T20:13:09.342Z,100666.75
2022-09-12T20:15:35.989Z,100671.13
2022-09-12T20:18:02.397Z,100678.31
2022-09-12T20:20:28.788Z,100673.34
2022-09-12T20:22:55.144Z,100665.09
2022-09-12T20:25:21.657Z,100663.00
2022-09-12T20:27:48.148Z,100649.81
2022-09-12T20:30:15.079Z,100646.06
2022-09-12T20:32:42.721Z,100654.44
2022-09-12T20:35:09.858Z,100663.16
2022-09-12T20:37:36.260Z,100658.00
2022-09-12T20:40:04.566Z,100657.31
2022-09-12T20:42:31.090Z,100665.22
2022-09-12T20:44:57.511Z,100658.59
2022-09-12T20:47:23.913Z,100654.44
2022-09-12T20:49:50.277Z,100645.06
2022-09-12T20:52:16.701Z,100641.13
2022-09-12T20:54:43.014Z,100632.84
2022-09-12T20:57:09.385Z,100634.88
2022-09-12T20:59:39.260Z,100628.00
2022-09-12T21:02:05.903Z,100625.03
2022-09-12T21:04:32.325Z,100625.53
2022-09-12T21:06:58.777Z,100620.84
2022-09-12T21:09:25.150Z,100616.84
2022-09-12T21:11:51.671Z,100618.84
2022-09-12T21:14:17.983Z,100610.88
2022-09-12T21:16:44.622Z,100606.94
2022-09-12T21:19:10.977Z,100608.09
2022-09-12T21:21:37.362Z,100599.59
2022-09-12T21:24:04.395Z,100581.09
2022-09-12T21:26:31.868Z,100592.59
2022-09-12T21:28:58.561Z,100593.63
2022-09-12T21:31:25.652Z,100602.81
2022-09-12T21:33:52.318Z,100607.50
2022-09-12T21:36:18.757Z,100608.56
2022-09-12T21:38:45.112Z,100609.28
2022-09-12T21:41:14.324Z,100608.94
2022-09-12T21:43:41.425Z,100608.97
2022-09-12T21:46:08.381Z,100606.63
2022-09-12T21:48:35.598Z,100605.19
2022-09-12T21:51:02.243Z,100598.28
2022-09-12T21:53:28.660Z,100605.56
2022-09-12T21:55:55.464Z,100607.59
2022-09-12T21:58:21.901Z,100606.88
2022-09-12T22:00:48.329Z,100605.56
2022-09-12T22:03:15.462Z,100607.03
2022-09-12T22:05:42.573Z,100616.88
2022-09-12T22:08:10.546Z,100629.13
2022-09-12T22:10:38.469Z,100627.97
2022-09-12T22:13:05.381Z,100630.16
2022-09-12T22:15:40.841Z,100629.84
2022-09-12T22:18:07.701Z,100639.28
2022-09-12T22:20:34.066Z,100634.31
2022-09-12T22:23:24.633Z,100629.44
2022-09-12T22:25:55.076Z,100626.69
2022-09-12T22:28:21.420Z,100626.44
2022-09-12T22:30:48.584Z,100628.53
2022-09-12T22:33:15.381Z,100633.50
2022-09-12T22:35:42.364Z,100627.34
2022-09-12T22:38:09.039Z,100633.59
2022-09-12T22:40:35.406Z,100642.13
2022-09-12T22:43:02.295Z,100646.75
2022-09-12T22:45:28.765Z,100649.66
2022-09-12T22:47:56.368Z,100639.53
2022-09-12T22:50:25.642Z,100626.03
2022-09-12T22:52:52.572Z,100634.56
2022-09-12T22:55:19.031Z,100636.06
2022-09-12T22:57:45.410Z,100636.81
2022-09-12T23:00:12.310Z,100631.66
2022-09-12T23:02:38.694Z,100631.50
2022-09-12T23:05:05.809Z,100621.19
2022-09-12T23:07:32.455Z,100625.41
2022-09-12T23:09:58.799Z,100628.22
2022-09-12T23:12:25.169Z,100629.75
2022-09-12T23:14:51.490Z,100634.22
2022-09-12T23:17:18.134Z,100627.69
2022-09-12T23:19:48.512Z,100622.94
2022-09-12T23:22:14.993Z,100628.00
2022-09-12T23:24:41.496Z,100625.25
2022-09-12T23:27:08.244Z,100620.28
2022-09-12T23:29:35.367Z,100615.75
2022-09-12T23:32:03.393Z,100616.03
2022-09-12T23:34:29.908Z,100613.31
2022-09-12T23:36:56.410Z,100610.66
2022-09-12T23:39:25.881Z,100605.97
2022-09-12T23:41:52.271Z,100609.00
2022-09-12T23:44:18.645Z,100609.41
2022-09-12T23:46:45.103Z,100608.22
2022-09-12T23:49:11.526Z,100610.13
2022-09-12T23:51:37.893Z,100610.47
2022-09-12T23:54:04.377Z,100610.81
2022-09-12T23:56:30.739Z,100609.53
2022-09-12T23:58:57.157Z,100602.69
